Time;durP1;ratioP1;P1;durP2;ratioP2;P2;SDS_P1;SDS_P2;PMS_P1;PMS_P2;Temp;Humidity;BMP_temperature;BMP_pressure;BME280_temperature;BME280_humidity;BME280_pressure;Samples;Min_cycle;Max_cycle;Signal;HPM_P1;HPM_P2
2024/04/19 00:01:55;;;;;;;;;;;;;;;21.79;29.30;101761.13;4573626;25;19943;-65
2024/04/19 00:03:57;;;;;;;;;;;;;;;21.78;29.61;101754.88;4573895;25;19927;-64
2024/04/19 00:05:59;;;;;;;;;;;;;;;21.75;29.14;101756.91;4574145;25;20303;-64
2024/04/19 00:08:03;;;;;;;;;;;;;;;21.76;29.19;101753.28;4573466;25;20269;-64
2024/04/19 00:10:05;;;;;;;;;;;;;;;21.75;29.49;101754.22;4573881;25;20385;-64
2024/04/19 00:12:09;;;;;;;;;;;;;;;21.74;28.74;101752.50;4570943;26;19927;-63
2024/04/19 00:14:11;;;;;;;;;;;;;;;21.74;28.94;101749.81;4573719;26;20458;-64
2024/04/19 00:16:13;;;;;;;;;;;;;;;21.73;29.11;101746.31;4572159;26;19928;-62
2024/04/19 00:18:14;;;;;;;;;;;;;;;21.73;29.86;101746.31;4573658;25;19938;-64
2024/04/19 00:20:17;;;;;;;;;;;;;;;21.74;29.26;101747.16;4573696;25;19955;-64
2024/04/19 00:22:19;;;;;;;;;;;;;;;21.74;29.39;101749.81;4571472;26;19963;-64
2024/04/19 00:24:21;;;;;;;;;;;;;;;21.74;29.26;101756.06;4573480;25;20003;-64
2024/04/19 00:26:24;;;;;;;;;;;;;;;21.75;29.81;101749.75;4573404;25;20314;-63
2024/04/19 00:28:27;;;;;;;;;;;;;;;21.76;29.58;101754.13;4573189;25;19953;-64
2024/04/19 00:30:28;;;;;;;;;;;;;;;21.76;28.87;101750.59;4573473;25;19927;-63
2024/04/19 00:32:30;;;;;;;;;;;;;;;21.76;29.46;101751.44;4573393;25;19927;-63
2024/04/19 00:34:32;;;;;;;;;;;;;;;21.75;29.25;101748.88;4573287;25;19928;-64
2024/04/19 00:36:34;;;;;;;;;;;;;;;21.70;29.02;101752.72;4571771;26;19954;-64
2024/04/19 00:38:36;;;;;;;;;;;;;;;21.68;29.22;101760.00;4573274;25;19931;-64
2024/04/19 00:40:38;;;;;;;;;;;;;;;21.63;29.41;101746.06;4573010;25;19927;-62
2024/04/19 00:42:56;;;;;;;;;;;;;;;21.60;29.35;101745.41;4573400;25;20417;-63
2024/04/19 00:44:57;;;;;;;;;;;;;;;21.59;29.19;101743.69;4573280;25;19927;-62
2024/04/19 00:46:59;;;;;;;;;;;;;;;21.59;29.82;101743.69;4573312;25;19938;-61
2024/04/19 00:49:01;;;;;;;;;;;;;;;21.57;29.76;101727.72;4572986;25;19928;-62
2024/04/19 00:51:04;;;;;;;;;;;;;;;21.57;29.38;101726.84;4573283;25;19928;-61
2024/04/19 00:53:06;;;;;;;;;;;;;;;21.56;29.93;101728.66;4572789;25;19931;-62
2024/04/19 00:55:08;;;;;;;;;;;;;;;21.55;29.21;101719.75;4572739;25;19996;-62
2024/04/19 00:57:10;;;;;;;;;;;;;;;21.57;29.96;101719.69;4573289;25;19928;-64
2024/04/19 00:59:12;;;;;;;;;;;;;;;21.57;29.56;101714.34;4572898;25;20388;-62
2024/04/19 01:01:13;;;;;;;;;;;;;;;21.57;29.91;101713.47;4573157;25;19927;-62
2024/04/19 01:03:15;;;;;;;;;;;;;;;21.55;29.51;101706.34;4573042;25;19964;-62
2024/04/19 01:05:17;;;;;;;;;;;;;;;21.55;29.48;101701.00;4573011;25;19928;-62
2024/04/19 01:07:20;;;;;;;;;;;;;;;21.57;29.68;101702.75;4573274;25;19939;-62
2024/04/19 01:09:22;;;;;;;;;;;;;;;21.56;29.96;101693.84;4572841;25;19927;-62
2024/04/19 01:11:24;;;;;;;;;;;;;;;21.55;29.43;101690.31;4570529;25;19928;-61
2024/04/19 01:13:26;;;;;;;;;;;;;;;21.55;29.30;101697.47;4573093;25;19955;-62
2024/04/19 01:15:27;;;;;;;;;;;;;;;21.56;29.34;101699.22;4572515;25;19927;-62
2024/04/19 01:17:29;;;;;;;;;;;;;;;21.57;29.54;101684.03;4572850;25;19935;-63
2024/04/19 01:19:31;;;;;;;;;;;;;;;21.58;29.97;101683.94;4572708;25;19927;-62
2024/04/19 01:21:33;;;;;;;;;;;;;;;21.58;29.54;101673.22;4572739;25;19931;-63
2024/04/19 01:23:35;;;;;;;;;;;;;;;21.59;30.19;101671.41;4572848;25;19935;-62
2024/04/19 01:25:37;;;;;;;;;;;;;;;21.60;30.10;101668.63;4572266;25;19927;-62
2024/04/19 01:27:39;;;;;;;;;;;;;;;21.60;30.18;101671.28;4572684;25;20373;-63
2024/04/19 01:29:41;;;;;;;;;;;;;;;21.60;30.05;101665.94;4572574;25;20028;-63
2024/04/19 01:31:42;;;;;;;;;;;;;;;21.60;29.63;101663.25;4555387;26;19935;-62
2024/04/19 01:33:44;;;;;;;;;;;;;;;21.59;30.25;101663.38;4572774;25;19927;-63
2024/04/19 01:35:46;;;;;;;;;;;;;;;21.62;30.24;101658.66;4572399;25;19927;-62
2024/04/19 01:37:49;;;;;;;;;;;;;;;21.62;29.37;101657.81;4572629;25;19927;-62
2024/04/19 01:39:51;;;;;;;;;;;;;;;21.61;29.47;101653.44;4572166;25;19927;-62
2024/04/19 01:41:55;;;;;;;;;;;;;;;21.64;30.05;101658.56;4572433;25;19940;-63
2024/04/19 01:43:58;;;;;;;;;;;;;;;21.65;30.21;101658.47;4573029;25;19938;-63
2024/04/19 01:46:00;;;;;;;;;;;;;;;21.67;29.91;101655.69;4572141;25;19995;-63
2024/04/19 01:48:03;;;;;;;;;;;;;;;21.68;30.02;101657.41;4572516;25;19927;-63
2024/04/19 01:50:06;;;;;;;;;;;;;;;21.69;29.46;101654.63;4572417;25;20369;-63
2024/04/19 01:52:07;;;;;;;;;;;;;;;21.69;30.25;101648.41;4572343;25;19972;-63
2024/04/19 01:54:09;;;;;;;;;;;;;;;21.69;29.83;101646.59;4572204;25;20261;-63
2024/04/19 01:56:11;;;;;;;;;;;;;;;21.69;29.32;101643.91;4572112;25;20391;-63
2024/04/19 01:58:13;;;;;;;;;;;;;;;21.68;29.65;101642.19;4570792;25;19931;-62
2024/04/19 02:00:14;;;;;;;;;;;;;;;21.69;30.25;101635.03;4572346;25;19938;-62
2024/04/19 02:02:16;;;;;;;;;;;;;;;21.69;30.01;101635.03;4565552;26;19928;-62
2024/04/19 02:04:18;;;;;;;;;;;;;;;21.67;30.33;101624.41;4572755;25;19935;-61
2024/04/19 02:06:20;;;;;;;;;;;;;;;21.68;29.70;101625.28;4572231;25;19927;-63
2024/04/19 02:08:22;;;;;;;;;;;;;;;21.68;29.83;101615.41;4571912;25;19994;-62
2024/04/19 02:10:23;;;;;;;;;;;;;;;21.70;29.60;101607.28;4572482;25;19927;-61
2024/04/19 02:13:02;;;;;;;;;;;;;;;21.73;29.73;101607.06;4584743;25;19931;-63
2024/04/19 02:15:05;;;;;;;;;;;;;;;21.75;29.56;101607.84;4587487;25;19927;-63
2024/04/19 02:17:07;;;;;;;;;;;;;;;21.76;30.20;101606.00;4587282;25;19982;-63
2024/04/19 02:19:09;;;;;;;;;;;;;;;21.74;29.49;101605.25;4585879;25;20338;-62
2024/04/19 02:21:11;;;;;;;;;;;;;;;21.74;29.39;101603.44;4587047;25;19995;-63
2024/04/19 02:23:16;;;;;;;;;;;;;;;21.74;29.38;101597.22;4586993;25;19939;-63
2024/04/19 02:25:17;;;;;;;;;;;;;;;21.74;29.59;101598.09;4587496;25;19927;-63
2024/04/19 02:32:02;;;;;;;;;;;;;;;21.69;29.63;101590.38;4553371;26;20269;-63
2024/04/19 02:34:04;;;;;;;;;;;;;;;21.70;29.82;101578.69;4554111;26;19943;-62
2024/04/19 02:36:06;;;;;;;;;;;;;;;21.74;30.43;101573.13;4554244;26;20261;-62
2024/04/19 02:38:08;;;;;;;;;;;;;;;21.74;30.31;101575.78;4553240;26;20374;-63
2024/04/19 02:40:10;;;;;;;;;;;;;;;21.75;29.50;101577.50;4553846;26;19932;-63
2024/04/19 02:42:37;;;;;;;;;;;;;;;21.76;30.13;101580.06;4525702;25;20366;-64
2024/04/19 02:44:39;;;;;;;;;;;;;;;21.75;29.44;101575.72;4526223;26;19940;-64
2024/04/19 02:46:41;;;;;;;;;;;;;;;21.74;29.62;101575.78;4524712;26;19933;-64
2024/04/19 02:48:43;;;;;;;;;;;;;;;21.71;29.57;101568.84;4526385;26;20363;-64
2024/04/19 02:50:47;;;;;;;;;;;;;;;21.73;30.15;101571.44;4526522;26;19928;-64
2024/04/19 02:52:48;;;;;;;;;;;;;;;21.73;30.01;101569.59;4525787;26;19928;-63
2024/04/19 02:54:50;;;;;;;;;;;;;;;21.72;30.56;101565.19;4526290;26;19928;-64
2024/04/19 02:56:52;;;;;;;;;;;;;;;21.71;30.13;101563.47;4526587;26;20000;-64
2024/04/19 02:58:53;;;;;;;;;;;;;;;21.73;30.26;101556.22;4525916;26;20366;-64
2024/04/19 03:00:55;;;;;;;;;;;;;;;21.72;30.46;101557.16;4526375;26;19929;-64
2024/04/19 03:02:57;;;;;;;;;;;;;;;21.74;30.14;101560.59;4524280;26;19933;-63
2024/04/19 03:04:59;;;;;;;;;;;;;;;21.73;30.13;101564.25;4526059;26;19929;-64
2024/04/19 03:07:01;;;;;;;;;;;;;;;21.74;29.83;101552.56;4526015;26;19928;-64
2024/04/19 03:09:03;;;;;;;;;;;;;;;21.76;30.16;101557.81;4525955;26;19928;-63
2024/04/19 03:11:04;;;;;;;;;;;;;;;21.75;29.74;101554.28;4526251;26;19932;-63
2024/04/19 03:13:21;;;;;;;;;;;;;;;21.75;29.68;101550.72;4525657;26;19928;-62
2024/04/19 03:15:23;;;;;;;;;;;;;;;21.74;30.01;101549.88;4524886;26;20306;-63
2024/04/19 03:17:24;;;;;;;;;;;;;;;21.73;30.18;101547.31;4526450;26;19928;-63
2024/04/19 03:19:29;;;;;;;;;;;;;;;21.72;30.25;101540.25;4525883;26;19928;-64
2024/04/19 03:21:31;;;;;;;;;;;;;;;21.73;30.70;101548.16;4525677;26;20054;-64
2024/04/19 03:23:33;;;;;;;;;;;;;;;21.69;29.94;101547.53;4538255;26;19978;-63
2024/04/19 03:25:36;;;;;;;;;;;;;;;21.69;30.39;101542.19;4526101;26;19928;-63
2024/04/19 03:27:38;;;;;;;;;;;;;;;21.71;30.63;101539.38;4524294;26;19929;-64
2024/04/19 03:29:40;;;;;;;;;;;;;;;21.72;30.03;101534.91;4525631;26;19936;-63
2024/04/19 03:31:42;;;;;;;;;;;;;;;21.74;30.32;101532.94;4525997;26;19928;-63
2024/04/19 03:33:43;;;;;;;;;;;;;;;21.73;30.62;101531.25;4525657;26;20439;-63
2024/04/19 03:35:45;;;;;;;;;;;;;;;21.74;30.26;101539.19;4523772;26;20022;-62
2024/04/19 03:37:48;;;;;;;;;;;;;;;21.75;30.48;101523.97;4524651;26;19933;-64
2024/04/19 03:39:49;;;;;;;;;;;;;;;21.73;29.89;101524.06;4525456;26;19929;-63
2024/04/19 03:41:51;;;;;;;;;;;;;;;21.71;30.01;101523.31;4525505;26;19959;-63
2024/04/19 03:46:23;;;;;;;;;;;;;;;21.69;30.34;101504.69;4508766;26;19928;-63
2024/04/19 03:48:24;;;;;;;;;;;;;;;21.70;29.90;101503.72;4525720;26;19935;-62
2024/04/19 03:50:26;;;;;;;;;;;;;;;21.69;30.07;101499.34;4525024;26;19974;-62
2024/04/19 03:52:28;;;;;;;;;;;;;;;21.72;30.13;101500.09;4522338;26;19936;-63
2024/04/19 03:54:30;;;;;;;;;;;;;;;21.70;30.53;101498.38;4512728;26;20366;-67
2024/04/19 03:56:31;;;;;;;;;;;;;;;21.73;29.82;101491.09;4493449;26;19929;-64
2024/04/19 03:58:33;;;;;;;;;;;;;;;21.71;30.13;101493.88;4513080;26;19928;-64
2024/04/19 04:00:36;;;;;;;;;;;;;;;21.73;30.54;101501.81;4512636;26;19929;-64
2024/04/19 04:02:38;;;;;;;;;;;;;;;21.73;30.39;101491.94;4512677;26;19932;-64
2024/04/19 04:04:39;;;;;;;;;;;;;;;21.70;30.28;101493.03;4512102;26;19932;-64
2024/04/19 04:06:41;;;;;;;;;;;;;;;21.73;29.89;101493.78;4512796;26;19996;-63
2024/04/19 04:08:45;;;;;;;;;;;;;;;21.69;29.83;101485.94;4512943;26;19939;-64
2024/04/19 04:10:46;;;;;;;;;;;;;;;21.68;30.26;101488.75;4512670;26;20031;-63
2024/04/19 04:13:15;;;;;;;;;;;;;;;21.69;30.83;101485.09;4585262;25;19927;-64
2024/04/19 04:15:17;;;;;;;;;;;;;;;21.69;30.82;101485.09;4545103;25;19939;-63
2024/04/19 04:17:19;;;;;;;;;;;;;;;21.67;30.77;101485.19;4526324;26;19935;-64
2024/04/19 04:19:20;;;;;;;;;;;;;;;21.70;29.89;101489.47;4526343;26;19935;-63
2024/04/19 04:21:22;;;;;;;;;;;;;;;21.70;30.11;101490.34;4526029;26;20335;-63
2024/04/19 04:23:24;;;;;;;;;;;;;;;21.72;30.50;101492.91;4548021;26;19973;-63
2024/04/19 04:25:26;;;;;;;;;;;;;;;21.73;30.19;101493.78;4548120;26;19928;-62
2024/04/19 04:27:27;;;;;;;;;;;;;;;21.74;30.29;101492.78;4526355;26;19938;-63
2024/04/19 04:29:29;;;;;;;;;;;;;;;21.75;29.96;101497.19;4526590;26;19940;-64
2024/04/19 04:31:31;;;;;;;;;;;;;;;21.71;30.52;101488.50;4525929;26;19939;-64
2024/04/19 04:33:33;;;;;;;;;;;;;;;21.73;30.55;101488.44;4525951;26;19939;-63
2024/04/19 04:35:36;;;;;;;;;;;;;;;21.69;30.01;101493.97;4526323;26;19968;-64
2024/04/19 04:37:38;;;;;;;;;;;;;;;21.67;30.87;101479.84;4526320;26;20378;-64
2024/04/19 04:39:40;;;;;;;;;;;;;;;21.66;29.96;101486.16;4526218;26;19997;-63
2024/04/19 04:41:42;;;;;;;;;;;;;;;21.65;30.19;101481.78;4527464;26;20332;-62
2024/04/19 04:43:58;;;;;;;;;;;;;;;21.65;30.61;101479.13;4531009;26;19936;-63
2024/04/19 04:46:02;;;;;;;;;;;;;;;21.66;30.87;101475.44;4526897;26;19950;-62
2024/04/19 04:48:04;;;;;;;;;;;;;;;21.67;30.94;101473.66;4525964;26;20014;-62
2024/04/19 04:50:06;;;;;;;;;;;;;;;21.66;30.69;101482.63;4526507;26;20055;-61
2024/04/19 04:52:07;;;;;;;;;;;;;;;21.67;30.06;101471.81;4525666;26;19940;-62
2024/04/19 04:54:09;;;;;;;;;;;;;;;21.68;30.26;101478.88;4526194;26;19941;-62
2024/04/19 04:56:11;;;;;;;;;;;;;;;21.70;30.70;101474.28;4526198;26;19935;-63
2024/04/19 04:58:13;;;;;;;;;;;;;;;21.72;30.21;101479.53;4526256;26;19956;-62
2024/04/19 05:00:15;;;;;;;;;;;;;;;21.69;30.63;101477.91;4526092;26;20289;-62
2024/04/19 05:02:16;;;;;;;;;;;;;;;21.67;30.08;101471.81;4523364;26;20389;-62
2024/04/19 05:04:18;;;;;;;;;;;;;;;21.65;30.28;101472.88;4526119;26;19939;-61
2024/04/19 05:06:20;;;;;;;;;;;;;;;21.65;30.89;101481.78;4525793;26;19928;-62
2024/04/19 05:08:22;;;;;;;;;;;;;;;21.66;30.60;101470.09;4524206;26;20031;-62
2024/04/19 05:10:24;;;;;;;;;;;;;;;21.67;30.58;101470.97;4524375;26;19928;-62
2024/04/19 05:12:52;;;;;;;;;;;;;;;21.66;30.98;101469.25;4525228;26;20266;-62
2024/04/19 05:14:54;;;;;;;;;;;;;;;21.66;30.17;101469.25;4525770;26;19960;-63
2024/04/19 05:16:56;;;;;;;;;;;;;;;21.65;30.71;101467.53;4525117;26;20386;-62
2024/04/19 05:18:58;;;;;;;;;;;;;;;21.65;30.45;101465.72;4525699;26;20274;-62
2024/04/19 05:21:00;;;;;;;;;;;;;;;21.68;30.71;101459.31;4526065;26;19936;-62
2024/04/19 05:23:02;;;;;;;;;;;;;;;21.69;30.24;101458.34;4529048;26;20004;-63
2024/04/19 05:25:07;;;;;;;;;;;;;;;21.66;30.36;101455.88;4512816;26;19944;-62
2024/04/19 05:27:09;;;;;;;;;;;;;;;21.64;30.35;101453.31;4512549;26;19997;-63
2024/04/19 05:29:11;;;;;;;;;;;;;;;21.65;30.36;101452.34;4512873;26;20498;-63
2024/04/19 05:31:13;;;;;;;;;;;;;;;21.64;30.49;101455.97;4512630;26;19928;-63
2024/04/19 05:33:15;;;;;;;;;;;;;;;21.63;30.93;101456.06;4512193;26;19943;-63
2024/04/19 05:35:17;;;;;;;;;;;;;;;21.64;31.11;101452.44;4511164;26;20409;-63
2024/04/19 05:37:19;;;;;;;;;;;;;;;21.63;30.34;101450.72;4512846;26;19928;-63
2024/04/19 05:39:21;;;;;;;;;;;;;;;21.63;31.10;101450.72;4512574;26;19997;-61
2024/04/19 05:41:23;;;;;;;;;;;;;;;21.66;30.70;101446.00;4515596;26;19936;-62
2024/04/19 05:43:52;;;;;;;;;;;;;;;21.65;30.38;101447.00;4520542;26;19929;-63
2024/04/19 05:45:54;;;;;;;;;;;;;;;21.65;30.17;101436.28;4512231;26;19939;-63
2024/04/19 05:47:56;;;;;;;;;;;;;;;21.66;30.46;101440.66;4512086;26;19935;-62
2024/04/19 05:49:58;;;;;;;;;;;;;;;21.66;30.13;101440.66;4512454;26;21479;-63
2024/04/19 05:52:00;;;;;;;;;;;;;;;21.67;31.04;101436.16;4512433;26;19948;-65
2024/04/19 05:54:02;;;;;;;;;;;;;;;21.67;30.68;101437.00;4512246;26;19928;-62
2024/04/19 05:56:03;;;;;;;;;;;;;;;21.65;30.90;101436.28;4512487;26;19929;-63
2024/04/19 05:58:05;;;;;;;;;;;;;;;21.63;30.87;101440.00;4510558;26;20262;-62
2024/04/19 06:00:07;;;;;;;;;;;;;;;21.61;30.40;101444.63;4512164;26;19929;-62
2024/04/19 06:02:09;;;;;;;;;;;;;;;21.62;30.74;101447.19;4512970;26;19936;-61
2024/04/19 06:04:12;;;;;;;;;;;;;;;21.63;30.74;101450.72;4512150;26;20475;-62
2024/04/19 06:06:13;;;;;;;;;;;;;;;21.62;31.10;101444.50;4512288;26;20306;-62
2024/04/19 06:08:17;;;;;;;;;;;;;;;21.60;30.38;101441.09;4512430;26;19938;-62
2024/04/19 06:10:18;;;;;;;;;;;;;;;21.62;30.95;101452.53;4512031;26;19935;-62
2024/04/19 06:12:35;;;;;;;;;;;;;;;21.62;30.78;101447.19;4479499;26;20326;-64
2024/04/19 06:14:37;;;;;;;;;;;;;;;21.63;30.89;101451.59;4498789;26;20251;-62
2024/04/19 06:16:38;;;;;;;;;;;;;;;21.65;30.80;101454.16;4512165;26;19928;-63
2024/04/19 06:18:40;;;;;;;;;;;;;;;21.64;30.23;101452.44;4511998;26;19928;-63
2024/04/19 06:20:42;;;;;;;;;;;;;;;21.64;31.00;101453.31;4511863;26;19928;-63
2024/04/19 06:22:44;;;;;;;;;;;;;;;21.64;30.67;101449.75;4523404;26;19939;-63
2024/04/19 06:24:46;;;;;;;;;;;;;;;21.60;30.34;101451.78;4527778;26;19928;-63
2024/04/19 06:26:48;;;;;;;;;;;;;;;21.60;30.62;101451.78;4512008;26;19928;-62
2024/04/19 06:28:49;;;;;;;;;;;;;;;21.62;30.48;101438.31;4511698;26;20367;-62
2024/04/19 06:30:51;;;;;;;;;;;;;;;21.63;30.72;101442.69;4511694;26;19929;-63
2024/04/19 06:32:53;;;;;;;;;;;;;;;21.62;30.96;101451.69;4482476;26;19940;-63
2024/04/19 06:34:56;;;;;;;;;;;;;;;21.62;30.67;101449.03;4492328;26;20274;-62
2024/04/19 06:36:58;;;;;;;;;;;;;;;21.62;30.37;101444.50;4511989;26;19932;-63
2024/04/19 06:39:00;;;;;;;;;;;;;;;21.62;31.22;101449.88;4511863;26;20364;-62
2024/04/19 06:41:02;;;;;;;;;;;;;;;21.63;30.70;101445.34;4509867;26;19928;-63
2024/04/19 06:43:08;;;;;;;;;;;;;;;21.63;31.22;101443.56;4509606;26;19933;-63
2024/04/19 06:45:10;;;;;;;;;;;;;;;21.63;30.59;101438.19;4511728;26;19935;-63
2024/04/19 06:47:12;;;;;;;;;;;;;;;21.62;31.29;101439.16;4492233;26;19956;-62
2024/04/19 06:49:14;;;;;;;;;;;;;;;21.60;30.92;101432.22;4511796;26;19928;-63
2024/04/19 06:51:16;;;;;;;;;;;;;;;21.60;31.26;101445.59;4511676;26;19928;-64
2024/04/19 06:53:18;;;;;;;;;;;;;;;21.58;31.08;101442.16;4511670;26;19936;-64
2024/04/19 06:55:20;;;;;;;;;;;;;;;21.58;30.51;101436.81;4511799;26;19978;-63
2024/04/19 06:57:21;;;;;;;;;;;;;;;21.59;31.19;101433.16;4511774;26;19928;-63
2024/04/19 06:59:23;;;;;;;;;;;;;;;21.59;30.99;101433.16;4511314;26;19936;-63
2024/04/19 07:01:25;;;;;;;;;;;;;;;21.62;31.35;101435.66;4511469;26;20448;-63
2024/04/19 07:03:27;;;;;;;;;;;;;;;21.61;31.17;101434.78;4512139;26;19928;-63
2024/04/19 07:05:29;;;;;;;;;;;;;;;21.63;31.13;101442.69;4511639;26;20005;-63
2024/04/19 07:07:31;;;;;;;;;;;;;;;21.63;30.93;101427.50;4511739;26;19936;-63
2024/04/19 07:09:32;;;;;;;;;;;;;;;21.63;30.45;101431.97;4511896;26;19928;-63
2024/04/19 07:11:39;;;;;;;;;;;;;;;21.63;30.71;101437.31;4511253;26;19936;-64
2024/04/19 07:13:46;;;;;;;;;;;;;;;21.59;31.21;101434.00;4511308;26;19936;-63
2024/04/19 07:15:48;;;;;;;;;;;;;;;21.58;31.17;101428.78;4511435;26;20374;-63
2024/04/19 07:17:50;;;;;;;;;;;;;;;21.55;30.58;101432.50;4509665;26;20263;-64
2024/04/19 07:19:52;;;;;;;;;;;;;;;21.58;31.23;101432.31;4511973;26;19940;-63
2024/04/19 07:21:53;;;;;;;;;;;;;;;21.60;30.79;101429.53;4509420;26;19935;-63
2024/04/19 07:23:55;;;;;;;;;;;;;;;21.58;30.91;101435.00;4521230;26;19948;-64
2024/04/19 07:25:56;;;;;;;;;;;;;;;21.58;30.99;101426.97;4511627;26;19928;-64
2024/04/19 07:28:01;;;;;;;;;;;;;;;21.60;30.88;101421.50;4509834;26;19939;-63
2024/04/19 07:30:04;;;;;;;;;;;;;;;21.62;31.28;101424.94;4512031;26;19928;-63
2024/04/19 07:32:05;;;;;;;;;;;;;;;21.62;30.66;101420.44;4511367;26;19928;-64
2024/04/19 07:34:07;;;;;;;;;;;;;;;21.63;30.95;101423.94;4511224;26;19957;-64
2024/04/19 07:36:10;;;;;;;;;;;;;;;21.62;30.85;101435.66;4511514;26;20262;-64
2024/04/19 07:38:12;;;;;;;;;;;;;;;21.62;30.66;101431.13;4511203;26;19928;-64
2024/04/19 07:40:14;;;;;;;;;;;;;;;21.61;31.40;101424.06;4511257;26;19929;-63
2024/04/19 07:42:19;;;;;;;;;;;;;;;21.60;31.25;101424.19;4510679;26;19935;-64
2024/04/19 07:44:21;;;;;;;;;;;;;;;21.60;31.15;101424.19;4511306;26;20274;-64
2024/04/19 07:46:23;;;;;;;;;;;;;;;21.60;31.43;101422.34;4510909;26;19929;-64
2024/04/19 07:48:24;;;;;;;;;;;;;;;21.61;30.74;101428.56;4511014;26;19997;-63
2024/04/19 07:50:26;;;;;;;;;;;;;;;21.59;31.65;101417.09;4511425;26;20051;-63
2024/04/19 07:52:28;;;;;;;;;;;;;;;21.60;30.84;101417.00;4511019;26;19928;-64
2024/04/19 07:54:30;;;;;;;;;;;;;;;21.61;30.98;101418.72;4511196;26;19929;-63
2024/04/19 07:56:33;;;;;;;;;;;;;;;21.63;31.63;101421.25;4510998;26;19997;-64
2024/04/19 07:58:35;;;;;;;;;;;;;;;21.62;31.29;101414.22;4510788;26;19944;-64
2024/04/19 08:00:38;;;;;;;;;;;;;;;21.62;31.71;101406.19;4511067;26;19936;-64
2024/04/19 08:02:41;;;;;;;;;;;;;;;21.64;31.48;101409.59;4510795;26;19928;-64
2024/04/19 08:04:43;;;;;;;;;;;;;;;21.61;31.49;101405.31;4510894;26;19928;-64
2024/04/19 08:06:44;;;;;;;;;;;;;;;21.62;31.46;101406.19;4511025;26;19928;-63
2024/04/19 08:08:48;;;;;;;;;;;;;;;21.62;30.79;101407.03;4510706;26;19977;-63
2024/04/19 08:10:50;;;;;;;;;;;;;;;21.62;31.65;101392.81;4510467;26;20354;-63
2024/04/19 08:12:52;;;;;;;;;;;;;;;21.61;31.61;101404.47;4510245;26;19940;-61
2024/04/19 08:14:54;;;;;;;;;;;;;;;21.62;31.68;101411.56;4510466;26;19936;-64
2024/04/19 08:16:56;;;;;;;;;;;;;;;21.60;31.68;101395.56;4508974;26;19928;-63
2024/04/19 08:18:58;;;;;;;;;;;;;;;21.61;31.20;101393.78;4508856;26;19997;-63
2024/04/19 08:21:00;;;;;;;;;;;;;;;21.61;31.35;101389.25;4510857;26;19929;-63
2024/04/19 08:23:02;;;;;;;;;;;;;;;21.62;31.74;101393.66;4522135;26;20792;-63
2024/04/19 08:25:04;;;;;;;;;;;;;;;21.62;30.96;101393.66;4510032;26;20024;-63
2024/04/19 08:27:05;;;;;;;;;;;;;;;21.63;31.60;101395.38;4510968;26;19938;-63
2024/04/19 08:29:07;;;;;;;;;;;;;;;21.64;31.26;101386.38;4510139;26;19929;-63
2024/04/19 08:31:26;;;;;;;;;;;;;;;21.62;31.42;101395.50;4510607;26;19936;-63
2024/04/19 08:33:28;;;;;;;;;;;;;;;21.62;31.74;101390.97;4510120;26;19943;-63
2024/04/19 08:35:30;;;;;;;;;;;;;;;21.61;31.16;101388.41;4510293;26;19935;-63
2024/04/19 08:37:32;;;;;;;;;;;;;;;21.63;31.18;101394.50;4510420;26;19929;-63
2024/04/19 08:39:33;;;;;;;;;;;;;;;21.63;31.96;101389.16;4509588;26;19929;-63
2024/04/19 08:42:01;;;;;;;;;;;;;;;21.61;31.86;101386.59;4614644;25;20291;-64
2024/04/19 08:44:05;;;;;;;;;;;;;;;21.60;31.79;101384.88;4602597;25;19935;-64
2024/04/19 08:46:07;;;;;;;;;;;;;;;21.63;31.64;101384.66;4577631;25;19935;-64
2024/04/19 08:48:10;;;;;;;;;;;;;;;21.63;31.59;101387.34;4557123;25;20265;-64
2024/04/19 08:50:12;;;;;;;;;;;;;;;21.63;31.16;101383.78;4573038;25;19927;-63
2024/04/19 08:52:19;;;;;;;;;;;;;;;21.65;31.15;101387.22;4561823;25;20301;-64
2024/04/19 08:54:42;;;;;;;;;;;;;;;21.65;31.09;101377.38;4561964;25;20357;-63
2024/04/19 08:56:45;;;;;;;;;;;;;;;21.64;32.03;101378.34;4573475;25;19928;-63
2024/04/19 08:58:46;;;;;;;;;;;;;;;21.65;31.64;101374.72;4557182;25;19980;-64
2024/04/19 09:00:51;;;;;;;;;;;;;;;21.66;31.21;101376.41;4575870;25;19998;-64
2024/04/19 09:02:53;;;;;;;;;;;;;;;21.68;31.76;101384.34;4558237;25;19935;-64
2024/04/19 09:04:55;;;;;;;;;;;;;;;21.67;31.25;101383.47;4560454;25;19928;-64
2024/04/19 09:06:59;;;;;;;;;;;;;;;21.66;32.13;101384.44;4574669;25;19928;-63
2024/04/19 09:09:02;;;;;;;;;;;;;;;21.65;31.44;101385.41;4556094;25;19935;-62
2024/04/19 09:11:13;;;;;;;;;;;;;;;21.67;31.53;101382.63;4575443;25;19927;-63
2024/04/19 09:13:15;;;;;;;;;;;;;;;21.68;31.58;101385.19;4558037;25;20374;-63
2024/04/19 09:15:17;;;;;;;;;;;;;;;21.69;31.56;101386.06;4560682;25;19935;-63
2024/04/19 09:17:19;;;;;;;;;;;;;;;21.70;32.19;101390.41;4574913;25;20333;-63
2024/04/19 09:19:24;;;;;;;;;;;;;;;21.72;32.00;101384.97;4556517;26;19928;-62
2024/04/19 09:21:26;;;;;;;;;;;;;;;21.69;31.49;101386.91;4575358;25;19931;-63
2024/04/19 09:23:27;;;;;;;;;;;;;;;21.69;32.21;101383.38;4604722;25;19956;-63
2024/04/19 09:25:29;;;;;;;;;;;;;;;21.69;31.93;101389.56;4600278;25;19927;-64
2024/04/19 09:27:31;;;;;;;;;;;;;;;21.69;32.01;101391.41;4566519;25;19938;-62
2024/04/19 09:29:34;;;;;;;;;;;;;;;21.68;31.45;101382.50;4587346;25;19992;-62
2024/04/19 09:31:36;;;;;;;;;;;;;;;21.67;31.75;101388.81;4569971;25;19935;-63
2024/04/19 09:33:38;;;;;;;;;;;;;;;21.66;32.16;101378.22;4580943;25;19935;-62
2024/04/19 09:35:40;;;;;;;;;;;;;;;21.67;31.70;101386.16;4584264;25;19928;-63
2024/04/19 09:37:43;;;;;;;;;;;;;;;21.68;32.22;101374.47;4565594;25;19972;-63
2024/04/19 09:39:45;;;;;;;;;;;;;;;21.67;31.56;101372.75;4587085;25;20397;-64
2024/04/19 09:41:47;;;;;;;;;;;;;;;21.68;31.46;101370.94;4571914;25;20263;-64
2024/04/19 09:43:50;;;;;;;;;;;;;;;21.71;32.07;101373.41;4578453;25;19927;-63
2024/04/19 09:45:56;;;;;;;;;;;;;;;21.71;31.65;101376.06;4584017;25;19928;-64
2024/04/19 09:48:01;;;;;;;;;;;;;;;21.70;32.23;101369.00;4565951;25;19951;-63
2024/04/19 09:50:04;;;;;;;;;;;;;;;21.69;31.53;101362.81;4587045;25;19932;-63
2024/04/19 09:52:08;;;;;;;;;;;;;;;21.70;32.24;101367.19;4567173;25;19935;-62
2024/04/19 09:54:13;;;;;;;;;;;;;;;21.68;31.86;101368.28;4565677;26;20380;-62
2024/04/19 09:56:33;;;;;;;;;;;;;;;21.67;32.03;101370.09;4570631;25;19927;-64
2024/04/19 09:58:35;;;;;;;;;;;;;;;21.67;32.37;101361.22;4553737;26;19930;-63
2024/04/19 10:00:37;;;;;;;;;;;;;;;21.67;31.71;101363.88;4573489;25;19927;-62
2024/04/19 10:02:43;;;;;;;;;;;;;;;21.68;31.70;101360.25;4555638;25;19935;-62
2024/04/19 10:04:44;;;;;;;;;;;;;;;21.70;32.26;101350.25;4568584;26;19963;-63
2024/04/19 10:06:47;;;;;;;;;;;;;;;21.70;32.33;101353.81;4570416;25;20337;-63
2024/04/19 10:08:49;;;;;;;;;;;;;;;21.72;31.91;101345.66;4550772;26;20297;-62
2024/04/19 10:10:51;;;;;;;;;;;;;;;21.70;32.11;101345.78;4573492;25;19931;-64
2024/04/19 10:12:53;;;;;;;;;;;;;;;21.70;32.39;101340.44;4557784;26;20234;-64
2024/04/19 10:14:55;;;;;;;;;;;;;;;21.70;31.87;101323.50;4565908;25;19995;-64
2024/04/19 10:16:57;;;;;;;;;;;;;;;21.70;32.50;101326.16;4570392;26;20427;-64
2024/04/19 10:18:59;;;;;;;;;;;;;;;21.70;32.18;101332.41;4552539;25;19927;-64
2024/04/19 10:21:02;;;;;;;;;;;;;;;21.69;31.84;101332.50;4572764;25;19932;-64
2024/04/19 10:23:03;;;;;;;;;;;;;;;21.69;32.09;101330.69;4576663;25;19927;-63
2024/04/19 10:25:06;;;;;;;;;;;;;;;21.69;31.82;101343.22;4552560;25;20334;-63
2024/04/19 10:27:08;;;;;;;;;;;;;;;21.69;32.58;101336.03;4545018;26;19928;-62
2024/04/19 10:29:12;;;;;;;;;;;;;;;21.69;32.15;101345.91;4563226;26;20320;-64
2024/04/19 10:31:14;;;;;;;;;;;;;;;21.70;32.29;101328.84;4543109;26;19928;-64
2024/04/19 10:33:16;;;;;;;;;;;;;;;21.70;32.27;101334.19;4552828;26;19932;-63
2024/04/19 10:35:19;;;;;;;;;;;;;;;21.70;32.34;101328.84;4554632;25;20370;-64
2024/04/19 10:37:21;;;;;;;;;;;;;;;21.70;32.88;101332.41;4543486;26;19956;-64
2024/04/19 10:39:24;;;;;;;;;;;;;;;21.72;32.83;101326.91;4563987;26;19955;-64